KINS/INS METAR and TAF weather

Enter ICAO airport designator
Station Type Date Time Source
KINS METAR 2019/09/20 09:58 UTC NOAA

KINS 200958Z AUTO 27006KT 10SM CLR 14/M03 A2988 RMK AO2 SLP078 T01431031 $


Station Type Date Time Source
KINS Decoded METAR 2019/09/20 09:58 UTC NOAA

Indian Springs, Indian Springs Auxiliary AFLD Nellis AFB, NV, United States (KINS) 36-35N 115-40W
Sep 20, 2019 - 05:58 AM EDT / 2019.09.20 0958 UTC
Wind: from the W (270 degrees) at 7 MPH (6 KT):0
Visibility: 10 mile(s):0
Sky conditions: clear
Temperature: 57.7 F (14.3 C)
Dew Point: 26.4 F (-3.1 C)
Relative Humidity: 29%
Pressure (altimeter): 29.88 in. Hg (1011 hPa)
ob: KINS 200958Z AUTO 27006KT 10SM CLR 14/M03 A2988 RMK AO2 SLP078 T01431031
cycle: 10

Station Type Date Time Source
KINS TAF 2019/09/20 08:21 UTC NOAA

TAF TAF
AMD KINS 200817Z 2008/2111 30009KT 9999 FEW100 QNH2990INS
BECMG 2012/2013 VRB06KT 9999 SKC QNH3000INS
BECMG 2016/2017 34012G18KT 9999 SKC QNH2999INS
BECMG 2021/2022 24012G20KT 9999 SKC QNH2990INS
BECMG 2110/2111 VRB06KT 9999 SKC QNH3002INS TX24/2023Z TN10/2012Z

Example: see airport list